Time;durP1;ratioP1;P1;durP2;ratioP2;P2;SDS_P1;SDS_P2;PMS_P1;PMS_P2;Temp;Humidity;BMP_temperature;BMP_pressure;BME280_temperature;BME280_humidity;BME280_pressure;Samples;Min_cycle;Max_cycle;Signal;HPM_P1;HPM_P2
2023/03/20 00:08:56;;;;;;;13.80;5.60;;;;;;;42.27;32.74;100995.94;4985220;28;20389;-80
2023/03/20 00:11:29;;;;;;;15.60;7.50;;;;;;;42.25;33.42;100987.31;4965139;28;20814;-88
2023/03/20 00:14:07;;;;;;;13.33;6.27;;;;;;;42.21;33.61;100986.38;4970688;28;20552;-88
2023/03/20 00:23:31;;;;;;;14.70;5.50;;;;;;;42.18;33.70;100959.78;5046306;28;20382;-94
2023/03/20 00:26:37;;;;;;;12.93;5.90;;;;;;;42.03;33.44;100949.44;5023583;28;20485;-94
2023/03/20 00:29:06;;;;;;;11.67;7.43;;;;;;;42.20;33.58;100948.53;5034650;28;20471;-88
2023/03/20 00:31:42;;;;;;;11.30;5.63;;;;;;;42.18;33.37;100939.91;5010552;28;20439;-86
2023/03/20 00:34:18;;;;;;;14.23;5.20;;;;;;;42.14;33.34;100934.28;5023474;28;20470;-85
2023/03/20 00:44:47;;;;;;;12.70;5.30;;;;;;;42.12;33.84;100903.84;5046375;28;20390;-94
2023/03/20 00:47:20;;;;;;;17.60;6.93;;;;;;;42.05;33.86;100909.03;5036544;28;20432;-84
2023/03/20 00:50:36;;;;;;;15.30;6.70;;;;;;;42.09;33.79;100908.03;5010604;28;20444;-82
2023/03/20 01:04:08;;;;;;;10.00;5.30;;;;;;;42.04;33.92;100904.69;5046241;28;20459;-94
2023/03/20 01:06:34;;;;;;;15.40;6.10;;;;;;;42.09;33.58;100897.13;5029950;28;21019;-92
2023/03/20 01:09:41;;;;;;;15.03;6.20;;;;;;;42.07;34.20;100898.59;5025197;28;20472;-91
2023/03/20 01:12:09;;;;;;;12.37;5.30;;;;;;;42.10;33.85;100904.16;5031721;28;20487;-93
2023/03/20 01:18:42;;;;;;;14.57;6.10;;;;;;;41.98;34.22;100911.50;5049090;28;20463;-90
2023/03/20 01:21:09;;;;;;;10.60;5.10;;;;;;;41.98;33.82;100904.09;5032970;28;20525;-89
2023/03/20 01:23:35;;;;;;;11.53;6.10;;;;;;;41.96;34.05;100905.59;5033803;28;20420;-89
2023/03/20 01:34:28;;;;;;;20.17;5.77;;;;;;;41.99;34.62;100902.19;5044409;28;20477;-84
2023/03/20 01:36:58;;;;;;;13.27;5.83;;;;;;;41.82;35.01;100901.22;5019254;28;20552;-88
2023/03/20 01:39:43;;;;;;;12.27;4.87;;;;;;;41.77;35.16;100898.69;5003320;28;20440;-85
2023/03/20 01:42:13;;;;;;;13.57;5.97;;;;;;;41.86;34.92;100893.94;5003895;28;20940;-89
2023/03/20 01:44:39;;;;;;;11.70;6.37;;;;;;;41.79;34.58;100892.91;5023512;28;20491;-89
2023/03/20 01:47:24;;;;;;;14.53;5.33;;;;;;;41.80;35.10;100884.38;4997249;28;20425;-85
2023/03/20 01:56:47;;;;;;;17.03;5.60;;;;;;;41.75;34.81;100879.16;5014541;28;20480;-89
2023/03/20 01:59:23;;;;;;;14.87;6.20;;;;;;;41.61;34.74;100881.28;5013448;28;20452;-89
2023/03/20 02:05:30;;;;;;;10.13;4.87;;;;;;;41.63;34.83;100865.44;5022189;28;20839;-89
2023/03/20 02:08:24;;;;;;;12.30;5.30;;;;;;;41.53;34.69;100869.34;5001802;28;20506;-90
2023/03/20 02:10:59;;;;;;;9.53;4.73;;;;;;;41.70;34.31;100870.34;5007138;28;20440;-89
2023/03/20 02:13:35;;;;;;;12.60;5.43;;;;;;;41.59;34.51;100870.75;5011383;28;20471;-90
2023/03/20 02:16:15;;;;;;;12.93;5.90;;;;;;;41.62;34.38;100869.31;5009497;28;20435;-89
2023/03/20 02:18:43;;;;;;;10.13;4.57;;;;;;;41.66;34.32;100881.09;5001761;28;20456;-89
2023/03/20 02:21:39;;;;;;;20.43;7.20;;;;;;;41.70;34.36;100873.88;5019093;28;20508;-87
2023/03/20 02:24:33;;;;;;;16.93;5.33;;;;;;;41.52;33.99;100866.97;5023736;28;20428;-89
2023/03/20 02:27:15;;;;;;;10.23;4.30;;;;;;;41.57;33.81;100867.56;4994795;28;20417;-91
2023/03/20 02:30:25;;;;;;;12.70;4.97;;;;;;;41.61;33.95;100870.41;4995098;28;20435;-92
2023/03/20 02:33:23;;;;;;;15.13;5.90;;;;;;;41.67;33.26;100871.81;5005522;28;20547;-93
2023/03/20 02:36:09;;;;;;;14.43;6.53;;;;;;;41.66;33.61;100867.47;5022584;28;20479;-88
2023/03/20 02:38:57;;;;;;;13.90;5.70;;;;;;;41.69;33.02;100866.03;5016272;28;20427;-90
2023/03/20 02:41:44;;;;;;;11.93;5.47;;;;;;;41.67;33.12;100873.72;5023252;28;20424;-89
2023/03/20 02:44:49;;;;;;;14.43;6.60;;;;;;;41.64;33.45;100875.19;5052621;28;20442;-88
2023/03/20 02:47:48;;;;;;;13.47;5.20;;;;;;;41.78;33.28;100881.19;5007636;28;20942;-88
2023/03/20 02:50:35;;;;;;;11.97;5.23;;;;;;;41.77;33.42;100887.78;5003977;28;20434;-89
2023/03/20 02:53:28;;;;;;;16.60;5.07;;;;;;;41.71;33.48;100880.91;5037010;28;20464;-88
2023/03/20 02:56:12;;;;;;;13.20;5.10;;;;;;;41.86;33.00;100871.34;5019265;28;20432;-89
2023/03/20 02:59:16;;;;;;;15.07;6.00;;;;;;;41.98;32.76;100870.63;5010987;28;20466;-92
2023/03/20 03:01:59;;;;;;;11.23;5.73;;;;;;;41.95;32.62;100863.13;4974808;28;20485;-89
2023/03/20 03:04:36;;;;;;;11.57;5.30;;;;;;;41.80;33.30;100865.31;5013909;28;20919;-90
2023/03/20 03:07:07;;;;;;;8.97;4.20;;;;;;;41.79;33.22;100863.72;5024028;28;20510;-89
2023/03/20 03:09:49;;;;;;;14.50;6.87;;;;;;;41.76;33.25;100852.72;5011084;28;20429;-91
2023/03/20 03:12:26;;;;;;;15.93;4.70;;;;;;;41.75;33.36;100843.75;5031085;28;20471;-92
2023/03/20 03:15:12;;;;;;;11.53;5.40;;;;;;;41.70;33.25;100849.34;5025491;28;20439;-90
2023/03/20 03:17:48;;;;;;;12.80;6.60;;;;;;;41.70;33.02;100848.56;5014049;28;20838;-89
2023/03/20 03:20:35;;;;;;;12.67;4.87;;;;;;;41.67;33.34;100852.72;5011520;28;20439;-88
2023/03/20 03:23:07;;;;;;;13.47;5.47;;;;;;;41.71;33.16;100844.72;5025714;28;20984;-89
2023/03/20 03:25:39;;;;;;;15.43;5.10;;;;;;;41.68;33.09;100854.34;4988060;28;20463;-90
2023/03/20 03:28:27;;;;;;;12.77;4.63;;;;;;;41.69;33.22;100853.22;5004146;28;20521;-88
2023/03/20 03:30:56;;;;;;;16.30;4.90;;;;;;;41.73;33.46;100843.22;5029171;28;20426;-89
2023/03/20 03:33:29;;;;;;;9.70;5.40;;;;;;;41.75;33.34;100834.78;5033843;28;20545;-88
2023/03/20 03:36:22;;;;;;;14.53;6.70;;;;;;;41.75;33.07;100832.84;5007409;28;20547;-91
2023/03/20 03:39:09;;;;;;;13.10;4.90;;;;;;;41.74;33.35;100827.69;5020984;28;20439;-89
2023/03/20 03:41:39;;;;;;;12.23;3.80;;;;;;;41.75;33.78;100829.34;5038193;28;20890;-91
2023/03/20 03:48:11;;;;;;;13.13;4.80;;;;;;;41.88;33.49;100838.34;4966579;28;20430;-84
2023/03/20 03:51:07;;;;;;;16.80;4.57;;;;;;;41.83;32.94;100826.53;4945939;28;20462;-89
2023/03/20 03:53:42;;;;;;;8.13;4.37;;;;;;;41.88;32.92;100841.88;5034864;28;20499;-89
2023/03/20 03:59:54;;;;;;;10.20;4.60;;;;;;;41.85;33.28;100846.03;5051855;28;20498;-84
2023/03/20 04:02:24;;;;;;;14.00;5.60;;;;;;;41.88;33.07;100844.59;4990333;28;20798;-89
2023/03/20 04:52:17;;;;;;;24.93;16.70;;;;;;;41.51;35.01;100889.88;5098962;22;21006;-88
2023/03/20 04:54:43;;;;;;;24.63;15.80;;;;;;;41.51;35.16;100882.50;5076732;28;20962;-89
2023/03/20 04:57:19;;;;;;;28.50;18.17;;;;;;;41.50;34.89;100882.84;5081784;28;20428;-89
2023/03/20 05:22:59;;;;;;;28.27;19.50;;;;;;;41.53;34.84;100901.22;5063962;28;20490;-89
2023/03/20 05:25:32;;;;;;;35.23;20.10;;;;;;;41.57;35.09;100911.13;5032055;28;20808;-89
2023/03/20 05:28:05;;;;;;;27.73;18.23;;;;;;;41.49;34.99;100913.91;5070575;28;20473;-89
2023/03/20 05:30:38;;;;;;;29.43;17.63;;;;;;;41.45;35.23;100921.16;5029297;28;20447;-91
2023/03/20 05:33:15;;;;;;;30.50;19.43;;;;;;;41.47;35.33;100916.97;5047631;28;20542;-85
2023/03/20 05:35:47;;;;;;;23.53;18.70;;;;;;;41.48;35.29;100918.53;5047818;28;20422;-90
2023/03/20 05:38:21;;;;;;;27.10;17.40;;;;;;;41.49;35.21;100930.22;5051836;28;20433;-90
2023/03/20 05:40:49;;;;;;;16.03;11.10;;;;;;;41.50;34.60;100920.97;5037171;28;20430;-88
2023/03/20 05:47:06;;;;;;;12.53;7.13;;;;;;;41.54;34.14;100928.13;5056310;28;20505;-84
2023/03/20 05:49:35;;;;;;;23.00;5.70;;;;;;;41.63;34.01;100941.69;5053637;28;20426;-93
2023/03/20 05:52:32;;;;;;;15.83;5.17;;;;;;;41.72;33.80;100942.44;5049109;28;20458;-84
2023/03/20 05:55:16;;;;;;;15.47;5.50;;;;;;;41.72;34.14;100930.75;5051705;28;20429;-88
2023/03/20 05:57:49;;;;;;;16.10;5.70;;;;;;;41.68;33.66;100938.78;5034853;28;20423;-88
2023/03/20 06:03:42;;;;;;;13.83;6.77;;;;;;;41.73;33.34;100952.19;5053600;28;20495;-88
2023/03/20 06:06:19;;;;;;;15.50;5.43;;;;;;;41.71;33.24;100943.56;5027155;28;20434;-84
2023/03/20 06:08:56;;;;;;;16.90;9.27;;;;;;;41.74;33.02;100959.28;5043183;28;20439;-85
2023/03/20 06:11:22;;;;;;;12.63;5.20;;;;;;;41.71;33.33;100953.66;5046331;28;20452;-86
2023/03/20 06:13:53;;;;;;;12.30;5.10;;;;;;;41.79;33.33;100963.72;5042700;28;20475;-90
2023/03/20 06:16:19;;;;;;;15.60;6.30;;;;;;;41.78;33.29;100960.19;5054905;28;20840;-90
2023/03/20 06:18:45;;;;;;;26.60;6.77;;;;;;;41.74;33.58;100974.78;5035834;28;20526;-88
2023/03/20 06:21:11;;;;;;;17.03;6.70;;;;;;;41.81;32.67;100970.44;5037512;28;20481;-86
2023/03/20 06:23:39;;;;;;;14.67;7.00;;;;;;;41.79;33.06;100967.25;5036426;28;20192;-88
2023/03/20 06:26:05;;;;;;;13.60;4.80;;;;;;;41.82;33.15;100972.03;5054914;28;20433;-86
2023/03/20 06:28:31;;;;;;;12.20;4.70;;;;;;;41.83;33.62;100981.00;5037360;28;20453;-86
2023/03/20 06:30:57;;;;;;;15.40;4.70;;;;;;;41.82;33.32;100982.94;5034915;28;20427;-85
2023/03/20 06:33:23;;;;;;;15.73;6.30;;;;;;;41.88;33.41;100990.94;5035772;28;20485;-85
2023/03/20 06:35:49;;;;;;;20.40;6.30;;;;;;;41.86;33.25;100994.75;5043389;28;20814;-85
2023/03/20 06:38:15;;;;;;;21.87;6.77;;;;;;;41.88;33.13;101005.34;5034083;28;20512;-86
2023/03/20 06:40:42;;;;;;;22.70;9.63;;;;;;;41.90;33.14;101011.25;5035468;28;20427;-88
2023/03/20 06:43:10;;;;;;;16.47;9.10;;;;;;;41.91;33.08;101007.38;5034936;28;20541;-87
2023/03/20 06:45:36;;;;;;;19.30;7.83;;;;;;;41.89;33.13;101011.59;5051455;28;20506;-87
2023/03/20 06:48:05;;;;;;;11.70;4.93;;;;;;;41.93;33.00;101007.06;5051233;28;20513;-87
2023/03/20 06:50:31;;;;;;;15.93;5.20;;;;;;;41.92;32.62;101008.97;5050595;28;20180;-88
2023/03/20 06:52:57;;;;;;;16.00;5.40;;;;;;;41.95;32.96;101008.34;5029064;28;20543;-86
2023/03/20 06:55:23;;;;;;;13.27;6.10;;;;;;;41.97;32.88;101016.16;5032134;28;20648;-88
2023/03/20 06:57:49;;;;;;;12.93;6.03;;;;;;;41.98;32.87;101018.56;5028811;28;20200;-86
2023/03/20 07:00:15;;;;;;;11.37;5.73;;;;;;;42.00;33.36;101034.59;5031802;28;20423;-89
2023/03/20 07:02:42;;;;;;;10.13;4.43;;;;;;;42.03;33.32;101037.44;5031473;28;20264;-89
2023/03/20 07:05:09;;;;;;;12.63;5.10;;;;;;;42.03;33.22;101040.16;5033362;28;20484;-89
2023/03/20 07:07:35;;;;;;;11.90;5.27;;;;;;;42.05;32.75;101046.09;5030356;28;20443;-86
2023/03/20 07:10:04;;;;;;;23.57;5.90;;;;;;;42.04;33.07;101038.25;5050597;28;20475;-86
2023/03/20 07:12:30;;;;;;;15.37;7.90;;;;;;;42.09;32.98;101051.69;5033588;28;20469;-84
2023/03/20 07:14:56;;;;;;;15.23;6.10;;;;;;;42.09;32.83;101052.47;5034195;28;20426;-86
2023/03/20 07:17:22;;;;;;;16.57;5.83;;;;;;;42.10;32.76;101053.28;5034700;28;20445;-86
2023/03/20 07:19:49;;;;;;;18.07;6.30;;;;;;;42.11;32.85;101055.69;5046619;28;20826;-86
2023/03/20 07:22:24;;;;;;;12.10;5.03;;;;;;;42.19;32.70;101067.69;5041921;28;20223;-86
2023/03/20 07:24:51;;;;;;;21.67;5.00;;;;;;;42.26;32.57;101067.16;5072475;28;20421;-85
2023/03/20 07:27:17;;;;;;;9.97;3.77;;;;;;;42.28;32.55;101079.31;5053332;28;20423;-88
2023/03/20 07:29:44;;;;;;;11.93;5.20;;;;;;;42.31;32.61;101077.88;5054531;28;20429;-89
2023/03/20 07:32:10;;;;;;;10.20;4.40;;;;;;;42.32;32.48;101079.47;5048152;28;20515;-89
2023/03/20 07:34:36;;;;;;;17.73;4.43;;;;;;;42.30;32.35;101082.53;5061957;28;20957;-89
2023/03/20 07:37:03;;;;;;;9.87;3.90;;;;;;;42.35;32.37;101082.31;5035022;28;20444;-87
2023/03/20 07:39:29;;;;;;;12.17;3.80;;;;;;;42.30;32.42;101085.25;5031745;28;20824;-87
2023/03/20 07:41:55;;;;;;;11.93;4.73;;;;;;;42.24;32.38;101088.50;5053584;28;20954;-89
2023/03/20 07:44:21;;;;;;;9.77;4.07;;;;;;;42.27;32.40;101093.28;5031602;28;20509;-89
2023/03/20 07:46:58;;;;;;;8.83;4.67;;;;;;;42.25;32.53;101088.16;5048152;28;20573;-87
2023/03/20 07:49:25;;;;;;;12.93;4.10;;;;;;;42.29;32.14;101100.00;5005036;28;20947;-84
2023/03/20 07:51:53;;;;;;;22.17;6.00;;;;;;;42.29;32.25;101108.16;5049442;28;20430;-83
2023/03/20 07:54:19;;;;;;;9.20;4.30;;;;;;;42.33;32.12;101102.88;5033032;28;20545;-83
2023/03/20 07:56:45;;;;;;;11.50;3.77;;;;;;;42.32;32.39;101112.97;5034012;28;20954;-83
2023/03/20 07:59:12;;;;;;;10.00;4.33;;;;;;;42.31;32.34;101110.59;5032507;28;20434;-85
2023/03/20 08:01:38;;;;;;;11.40;4.50;;;;;;;42.36;32.47;101124.03;5031549;28;20533;-83
2023/03/20 08:04:04;;;;;;;12.60;4.27;;;;;;;42.36;32.27;101124.81;5046207;28;20811;-84
2023/03/20 08:06:30;;;;;;;13.50;4.77;;;;;;;42.37;31.94;101128.34;5031676;28;20429;-82
2023/03/20 08:08:56;;;;;;;12.57;4.73;;;;;;;42.33;31.85;101135.59;5031300;28;20438;-80
2023/03/20 08:11:22;;;;;;;14.20;4.00;;;;;;;42.35;31.67;101136.84;5049458;28;20199;-86
2023/03/20 08:13:48;;;;;;;9.70;4.50;;;;;;;42.37;31.51;101142.78;5053244;28;20506;-83
2023/03/20 08:16:14;;;;;;;9.20;3.90;;;;;;;42.35;31.99;101136.84;5033002;28;20433;-84
2023/03/20 08:18:41;;;;;;;12.50;4.73;;;;;;;42.41;32.08;101142.91;5032983;28;20522;-84
2023/03/20 08:21:07;;;;;;;9.87;5.67;;;;;;;42.44;32.58;101141.47;5038175;28;20533;-84
2023/03/20 08:23:33;;;;;;;10.17;4.40;;;;;;;42.40;31.76;101142.09;5018340;28;20538;-85
2023/03/20 08:25:59;;;;;;;13.57;4.77;;;;;;;42.36;32.05;101146.63;5031397;28;20458;-85
2023/03/20 08:28:26;;;;;;;9.97;4.07;;;;;;;42.39;32.14;101151.41;5017277;28;20878;-88
2023/03/20 08:30:52;;;;;;;8.97;4.47;;;;;;;42.39;32.70;101154.16;5026754;28;20204;-87
2023/03/20 08:33:18;;;;;;;11.00;4.30;;;;;;;42.38;32.32;101147.09;5028645;28;20442;-86
2023/03/20 08:35:54;;;;;;;9.57;4.40;;;;;;;42.39;32.57;101154.16;5033102;28;20790;-86
2023/03/20 08:38:20;;;;;;;13.17;4.63;;;;;;;42.45;32.44;101157.47;5033725;28;20454;-84
2023/03/20 08:40:46;;;;;;;12.93;3.87;;;;;;;42.49;32.23;101157.63;5034446;28;20424;-85
2023/03/20 08:43:12;;;;;;;11.00;3.20;;;;;;;42.54;31.70;101157.41;5033573;28;20236;-87
2023/03/20 08:45:38;;;;;;;7.87;3.43;;;;;;;42.54;31.89;101163.69;5034509;28;20686;-86
2023/03/20 08:48:04;;;;;;;13.13;4.30;;;;;;;42.51;31.89;101158.09;5032957;28;20917;-85
2023/03/20 08:50:30;;;;;;;12.13;5.27;;;;;;;42.55;32.00;101164.50;5049923;28;20185;-85
2023/03/20 08:52:57;;;;;;;15.30;4.30;;;;;;;42.49;31.74;101158.44;5045940;28;20420;-90
2023/03/20 08:55:23;;;;;;;15.03;4.20;;;;;;;42.51;31.85;101158.88;5033733;28;20775;-90
2023/03/20 08:57:53;;;;;;;11.20;5.27;;;;;;;42.52;32.23;101167.88;5029789;28;20965;-88
2023/03/20 09:00:20;;;;;;;12.90;4.07;;;;;;;42.52;31.68;101157.75;4988528;28;21036;-86
2023/03/20 09:02:46;;;;;;;14.93;4.17;;;;;;;42.54;32.00;101168.31;5004598;28;20975;-87
2023/03/20 09:05:12;;;;;;;10.30;3.57;;;;;;;42.53;32.25;101164.78;5032658;28;20430;-86
2023/03/20 09:07:38;;;;;;;15.57;4.90;;;;;;;42.58;32.15;101166.56;5016098;28;20789;-88
2023/03/20 09:10:05;;;;;;;12.97;4.43;;;;;;;42.59;31.97;101173.63;5027881;28;20788;-88
2023/03/20 09:12:33;;;;;;;11.67;4.87;;;;;;;42.57;32.00;101173.13;5023095;28;20451;-86
2023/03/20 09:15:01;;;;;;;11.33;3.70;;;;;;;42.61;31.90;101177.63;5027065;28;20458;-86
2023/03/20 09:17:28;;;;;;;8.87;3.80;;;;;;;42.61;31.93;101172.16;5028553;28;20430;-86
2023/03/20 09:19:59;;;;;;;13.53;3.60;;;;;;;42.69;31.90;101175.16;5015545;28;20489;-87
2023/03/20 09:22:28;;;;;;;11.97;4.23;;;;;;;42.67;32.00;101171.97;5027901;28;21009;-87
2023/03/20 09:24:58;;;;;;;10.03;4.10;;;;;;;42.70;31.96;101174.81;5055345;28;20422;-87
2023/03/20 09:27:29;;;;;;;10.00;4.13;;;;;;;42.72;31.81;101182.66;5050170;28;20475;-87
2023/03/20 09:29:55;;;;;;;10.27;3.70;;;;;;;42.69;32.00;101181.41;5032268;28;20438;-87
2023/03/20 09:32:24;;;;;;;13.13;5.37;;;;;;;42.69;32.16;101186.88;5053664;28;20479;-85
2023/03/20 09:34:51;;;;;;;12.23;4.63;;;;;;;42.69;32.31;101186.06;5047784;28;20507;-87
2023/03/20 09:37:22;;;;;;;11.43;4.20;;;;;;;42.70;32.54;101171.31;5040486;28;20580;-88
2023/03/20 09:39:50;;;;;;;11.70;4.80;;;;;;;42.70;32.44;101174.81;5051039;28;20438;-86
2023/03/20 09:42:43;;;;;;;10.37;3.90;;;;;;;42.70;32.66;101185.75;5054658;28;20596;-87
2023/03/20 09:45:44;;;;;;;9.67;4.10;;;;;;;42.69;32.20;101186.88;5054754;28;20797;-88
2023/03/20 09:48:25;;;;;;;9.07;4.10;;;;;;;42.68;32.61;101185.28;5048494;28;20808;-86
2023/03/20 09:51:03;;;;;;;11.37;3.83;;;;;;;42.76;32.44;101183.63;5039689;28;20431;-87
2023/03/20 09:53:38;;;;;;;10.40;3.53;;;;;;;42.80;32.46;101184.56;5044247;28;20481;-86
2023/03/20 09:56:16;;;;;;;10.37;4.13;;;;;;;42.85;31.91;101176.97;5053597;28;20966;-87
2023/03/20 09:59:00;;;;;;;11.50;3.87;;;;;;;42.78;31.91;101173.94;5038254;28;20426;-86
2023/03/20 10:01:43;;;;;;;12.07;3.57;;;;;;;42.82;31.85;101174.91;5019474;28;20449;-87
2023/03/20 10:04:11;;;;;;;12.70;5.03;;;;;;;42.86;32.01;101173.09;5034948;28;20451;-86
2023/03/20 10:06:37;;;;;;;21.13;4.33;;;;;;;42.88;31.93;101170.81;5043103;28;20426;-89
2023/03/20 10:09:25;;;;;;;14.80;3.87;;;;;;;42.79;32.34;101164.66;5040895;28;20437;-84
2023/03/20 10:12:15;;;;;;;9.67;3.77;;;;;;;42.83;32.05;101156.59;5029288;28;20454;-86
2023/03/20 10:15:12;;;;;;;12.30;4.57;;;;;;;42.91;31.83;101167.44;5042251;28;20488;-88
2023/03/20 10:18:01;;;;;;;8.67;3.50;;;;;;;42.83;31.81;101154.66;5039666;28;20484;-85
2023/03/20 10:20:34;;;;;;;12.53;3.70;;;;;;;42.93;31.70;101167.91;5028096;28;20875;-85
2023/03/20 10:23:18;;;;;;;10.30;3.30;;;;;;;42.86;31.64;101164.13;5052154;28;20482;-85
2023/03/20 10:25:55;;;;;;;9.83;3.40;;;;;;;42.87;31.85;101155.59;5045730;28;20942;-84
2023/03/20 10:28:42;;;;;;;11.50;3.53;;;;;;;42.93;32.03;101159.72;5025031;28;20446;-84
2023/03/20 10:31:39;;;;;;;10.73;4.93;;;;;;;42.95;32.15;101153.13;5040652;28;20925;-84
2023/03/20 10:34:34;;;;;;;10.00;5.03;;;;;;;42.99;31.92;101151.34;5039846;28;20419;-84
2023/03/20 10:37:18;;;;;;;8.50;3.33;;;;;;;42.95;32.01;101139.47;5020729;28;20813;-85
2023/03/20 10:39:51;;;;;;;8.90;4.30;;;;;;;42.93;32.10;101142.53;5043529;28;20423;-85
2023/03/20 10:42:29;;;;;;;9.03;3.90;;;;;;;42.92;31.66;101136.28;5035706;28;20565;-83
2023/03/20 10:45:22;;;;;;;12.67;3.63;;;;;;;42.86;31.39;101128.66;5042990;28;20835;-85
2023/03/20 10:47:51;;;;;;;11.53;3.70;;;;;;;42.86;31.49;101120.47;5044473;28;20432;-87
2023/03/20 10:50:32;;;;;;;13.80;4.67;;;;;;;42.95;31.79;101123.09;5033876;28;20433;-86
2023/03/20 10:53:01;;;;;;;10.60;4.23;;;;;;;42.97;31.95;101123.56;5044696;28;20477;-86
2023/03/20 10:55:42;;;;;;;12.43;3.73;;;;;;;42.90;32.30;101124.88;5059551;28;20488;-85
2023/03/20 10:58:22;;;;;;;13.63;4.40;;;;;;;42.90;32.11;101113.19;5040057;28;20454;-86
2023/03/20 11:00:49;;;;;;;8.50;3.70;;;;;;;42.90;32.00;101107.72;5052099;28;20422;-86
2023/03/20 11:03:25;;;;;;;12.10;4.13;;;;;;;42.99;31.92;101107.69;5036003;28;20477;-86
2023/03/20 11:05:57;;;;;;;12.53;3.53;;;;;;;42.99;31.45;101100.28;5031375;28;20422;-88
2023/03/20 11:08:29;;;;;;;15.43;4.17;;;;;;;42.98;31.78;101103.34;5044902;28;20496;-80
2023/03/20 11:11:00;;;;;;;10.03;4.57;;;;;;;42.97;30.93;101101.72;5058905;28;20426;-80
2023/03/20 11:13:40;;;;;;;11.37;6.13;;;;;;;42.97;31.62;101104.44;5046022;28;20536;-81
2023/03/20 11:16:15;;;;;;;10.53;4.17;;;;;;;42.96;31.53;101100.91;5028926;28;20958;-79
2023/03/20 11:18:41;;;;;;;9.20;4.00;;;;;;;43.05;31.27;101092.69;5034252;28;20914;-79
2023/03/20 11:21:14;;;;;;;10.00;3.60;;;;;;;43.02;31.26;101082.44;5034117;28;20438;-78
2023/03/20 11:23:40;;;;;;;13.40;4.00;;;;;;;43.03;31.34;101078.56;5033109;28;20474;-78
2023/03/20 11:26:15;;;;;;;9.03;3.80;;;;;;;43.05;31.45;101085.31;5037453;28;20438;-78
2023/03/20 11:28:54;;;;;;;9.40;3.90;;;;;;;43.05;31.22;101082.56;5034525;28;20449;-78
2023/03/20 11:31:30;;;;;;;18.83;3.40;;;;;;;43.04;31.55;101072.00;5038831;28;20414;-79
2023/03/20 11:34:14;;;;;;;10.33;3.30;;;;;;;43.04;31.74;101080.97;5049621;28;20418;-78
2023/03/20 11:36:52;;;;;;;12.33;4.00;;;;;;;43.08;31.37;101076.44;5052889;28;20461;-80
2023/03/20 11:39:34;;;;;;;8.47;4.20;;;;;;;43.07;31.32;101061.19;5034315;28;20456;-79
2023/03/20 11:42:01;;;;;;;10.40;3.67;;;;;;;43.09;31.53;101060.84;5051281;28;20444;-79
2023/03/20 11:44:32;;;;;;;14.50;4.87;;;;;;;43.06;31.70;101056.06;5048217;28;20964;-80
2023/03/20 11:47:16;;;;;;;8.27;3.57;;;;;;;43.07;31.62;101058.47;5031849;28;20434;-79
2023/03/20 11:49:57;;;;;;;15.93;5.93;;;;;;;43.10;31.75;101054.28;5042680;28;20522;-80
2023/03/20 11:52:32;;;;;;;15.03;6.50;;;;;;;43.12;31.56;101049.25;5046235;28;20419;-78
2023/03/20 11:55:01;;;;;;;13.40;6.40;;;;;;;43.16;31.63;101042.78;5039395;28;20418;-82
2023/03/20 11:57:35;;;;;;;15.83;6.40;;;;;;;43.22;32.09;101048.84;5025040;28;20427;-80
2023/03/20 12:00:23;;;;;;;11.97;5.87;;;;;;;43.22;31.94;101039.81;5028731;28;20864;-82
2023/03/20 12:02:49;;;;;;;12.27;4.60;;;;;;;43.26;31.77;101033.34;5022165;28;22121;-79
2023/03/20 12:05:36;;;;;;;11.23;4.43;;;;;;;43.22;31.51;101031.63;5026633;28;20525;-79
2023/03/20 12:08:11;;;;;;;15.90;5.20;;;;;;;43.24;31.34;101032.91;5017813;28;20462;-81
2023/03/20 12:10:41;;;;;;;17.03;6.27;;;;;;;43.15;31.43;101032.19;5025197;28;20434;-78
2023/03/20 12:13:17;;;;;;;30.80;6.97;;;;;;;43.19;31.39;101024.94;5029364;28;20540;-79
2023/03/20 12:15:54;;;;;;;12.57;5.23;;;;;;;43.23;31.35;101017.66;5033412;28;20434;-83
2023/03/20 12:18:42;;;;;;;9.93;4.60;;;;;;;43.37;31.41;101009.94;5041780;28;20434;-81
2023/03/20 12:21:37;;;;;;;13.37;5.10;;;;;;;43.42;31.47;101003.47;5038180;28;20467;-78
2023/03/20 12:24:18;;;;;;;9.40;3.97;;;;;;;43.43;30.88;101003.13;5044018;28;20541;-79
2023/03/20 12:26:47;;;;;;;26.33;5.90;;;;;;;43.33;31.03;101000.03;5033249;28;20509;-78
2023/03/20 12:29:35;;;;;;;17.47;4.50;;;;;;;43.31;31.17;101000.38;5032724;28;20541;-77
2023/03/20 12:32:14;;;;;;;12.63;4.43;;;;;;;43.34;30.72;100993.41;5043095;28;20502;-77
2023/03/20 12:34:46;;;;;;;10.03;4.10;;;;;;;43.35;31.32;100982.16;5033651;28;20426;-77
2023/03/20 12:37:13;;;;;;;16.37;5.20;;;;;;;43.38;31.33;100977.94;5033264;28;20513;-78
2023/03/20 12:39:53;;;;;;;10.40;4.30;;;;;;;43.38;31.44;100967.03;5035661;28;20430;-76
2023/03/20 12:42:22;;;;;;;10.80;4.40;;;;;;;43.36;31.20;100972.03;5034982;28;20505;-77
2023/03/20 12:44:52;;;;;;;8.67;4.17;;;;;;;43.35;31.32;100973.19;5035276;28;20434;-83
2023/03/20 12:47:44;;;;;;;10.40;4.20;;;;;;;43.34;30.65;100974.28;5033779;28;20506;-81
2023/03/20 12:50:30;;;;;;;10.90;3.83;;;;;;;43.38;30.96;100965.13;5044548;28;20450;-81
2023/03/20 12:53:26;;;;;;;13.23;4.57;;;;;;;43.37;31.18;100949.84;5049872;28;20417;-81
2023/03/20 12:55:59;;;;;;;8.43;3.47;;;;;;;43.43;30.55;100943.03;5048924;28;20512;-82
2023/03/20 12:58:40;;;;;;;8.47;3.47;;;;;;;43.45;30.52;100948.16;5049608;28;20960;-81
2023/03/20 13:01:25;;;;;;;10.23;4.90;;;;;;;43.40;30.92;100934.72;5030656;28;20501;-78
2023/03/20 13:04:13;;;;;;;9.63;4.10;;;;;;;43.57;30.21;100925.50;5047560;28;20449;-78
2023/03/20 13:06:59;;;;;;;8.87;4.60;;;;;;;43.61;30.57;100929.13;5044360;28;20490;-78
2023/03/20 13:09:41;;;;;;;9.80;4.77;;;;;;;43.61;30.41;100932.66;5034304;28;20471;-79
2023/03/20 13:12:30;;;;;;;8.93;4.67;;;;;;;43.61;30.74;100924.47;5049968;28;20439;-82
2023/03/20 13:14:55;;;;;;;11.50;4.70;;;;;;;43.67;30.61;100914.09;5031933;28;20943;-82
2023/03/20 13:17:46;;;;;;;13.17;4.90;;;;;;;43.68;31.05;100915.69;5023631;28;20415;-79
2023/03/20 13:20:18;;;;;;;14.87;5.13;;;;;;;43.68;30.60;100912.97;5023891;28;20419;-82
2023/03/20 13:23:12;;;;;;;15.20;3.87;;;;;;;43.60;30.38;100913.91;5033784;28;20470;-80
2023/03/20 13:25:52;;;;;;;11.13;4.30;;;;;;;43.56;30.42;100902.84;5050908;28;20426;-78
2023/03/20 13:28:39;;;;;;;8.80;4.17;;;;;;;43.68;30.32;100900.09;5034259;28;20441;-79
2023/03/20 13:31:15;;;;;;;12.17;3.83;;;;;;;43.52;29.50;100896.47;5002593;28;20781;-79
2023/03/20 13:34:20;;;;;;;9.50;3.73;;;;;;;43.55;29.43;100886.81;5027617;28;20986;-79
2023/03/20 13:37:20;;;;;;;10.47;4.17;;;;;;;43.64;29.74;100879.25;5020037;28;20779;-82
2023/03/20 13:39:46;;;;;;;9.30;3.80;;;;;;;43.82;29.65;100885.28;5029804;28;20789;-79
2023/03/20 13:42:19;;;;;;;11.77;3.90;;;;;;;43.80;29.79;100877.44;5036887;28;20981;-79
2023/03/20 13:44:48;;;;;;;9.20;4.60;;;;;;;43.79;30.02;100870.38;5052921;28;20442;-79
2023/03/20 13:47:19;;;;;;;12.57;4.33;;;;;;;43.96;29.62;100870.09;5064924;28;20419;-81
2023/03/20 13:50:25;;;;;;;12.73;4.63;;;;;;;43.88;28.91;100862.81;5053670;28;20422;-80
2023/03/20 13:53:23;;;;;;;8.00;3.53;;;;;;;43.83;28.18;100854.06;5063482;28;20790;-82
2023/03/20 13:56:18;;;;;;;14.10;4.50;;;;;;;44.08;28.45;100850.09;5016850;28;20865;-82
2023/03/20 13:59:39;;;;;;;10.47;3.33;;;;;;;44.20;28.60;100846.53;5021413;28;20423;-82
2023/03/20 14:02:42;;;;;;;10.10;5.10;;;;;;;44.14;28.86;100842.44;5033437;28;20443;-82
2023/03/20 14:05:19;;;;;;;11.43;5.10;;;;;;;44.42;29.08;100843.19;5054026;28;20395;-80
2023/03/20 14:07:47;;;;;;;7.90;4.40;;;;;;;44.57;29.42;100844.38;5045660;28;20462;-79
2023/03/20 14:10:22;;;;;;;9.43;4.30;;;;;;;44.57;28.64;100841.66;5051770;28;20407;-82
2023/03/20 14:12:59;;;;;;;12.70;4.40;;;;;;;44.69;28.77;100835.25;5050083;28;20793;-82
2023/03/20 14:15:34;;;;;;;13.13;4.40;;;;;;;44.83;27.85;100826.63;5035750;28;20942;-80
2023/03/20 14:18:15;;;;;;;10.07;4.63;;;;;;;44.83;28.14;100823.88;5053283;28;20480;-79
2023/03/20 14:20:43;;;;;;;13.40;5.20;;;;;;;44.90;28.05;100827.56;5051270;28;20446;-82